createdAt,value
2022-09-06T00:01:43.169Z,17.25
2022-09-06T00:04:15.012Z,14.23
2022-09-06T00:06:42.414Z,11.57
2022-09-06T00:09:09.483Z,11.52
2022-09-06T00:11:37.163Z,12.10
2022-09-06T00:14:04.144Z,15.18
2022-09-06T00:16:31.150Z,12.90
2022-09-06T00:18:58.376Z,14.82
2022-09-06T00:21:28.107Z,12.02
2022-09-06T00:23:55.594Z,13.82
2022-09-06T00:26:23.315Z,12.40
2022-09-06T00:28:50.590Z,11.88
2022-09-06T00:31:21.274Z,11.48
2022-09-06T00:33:49.255Z,11.60
2022-09-06T00:36:16.847Z,14.95
2022-09-06T00:38:44.178Z,12.73
2022-09-06T00:41:13.498Z,12.50
2022-09-06T00:43:40.981Z,13.35
2022-09-06T00:46:10.812Z,15.38
2022-09-06T00:48:39.280Z,13.48
2022-09-06T00:51:09.553Z,12.45
2022-09-06T00:53:36.844Z,12.70
2022-09-06T00:56:03.912Z,11.38
2022-09-06T00:58:31.051Z,12.27
2022-09-06T01:00:58.079Z,13.13
2022-09-06T01:03:25.969Z,14.23
2022-09-06T01:06:17.967Z,12.10
2022-09-06T01:09:06.254Z,15.13
2022-09-06T01:11:51.948Z,13.40
2022-09-06T01:14:24.847Z,15.63
2022-09-06T01:17:23.593Z,13.68
2022-09-06T01:20:39.386Z,12.52
2022-09-06T01:23:28.519Z,12.65
2022-09-06T01:26:19.975Z,13.60
2022-09-06T01:28:47.738Z,11.90
2022-09-06T01:31:29.683Z,12.68
2022-09-06T01:34:08.734Z,12.90
2022-09-06T01:37:09.469Z,14.90
2022-09-06T01:39:38.590Z,12.40
2022-09-06T01:42:15.877Z,15.27
2022-09-06T01:44:55.217Z,14.23
2022-09-06T01:47:40.328Z,16.35
2022-09-06T01:50:33.131Z,11.85
2022-09-06T01:53:16.625Z,14.52
2022-09-06T01:55:43.482Z,13.00
2022-09-06T01:58:31.294Z,14.10
2022-09-06T02:01:04.597Z,12.45
2022-09-06T02:03:49.765Z,16.38
2022-09-06T02:06:28.496Z,15.35
2022-09-06T02:09:02.834Z,15.27
2022-09-06T02:11:37.984Z,13.25
2022-09-06T02:14:13.705Z,14.32
2022-09-06T02:16:44.340Z,16.38
2022-09-06T02:19:18.135Z,13.50
2022-09-06T02:21:47.607Z,15.70
2022-09-06T02:24:21.076Z,14.10
2022-09-06T02:26:48.538Z,17.23
2022-09-06T02:29:16.783Z,15.98
2022-09-06T02:31:49.075Z,16.35
2022-09-06T02:34:18.415Z,15.20
2022-09-06T02:36:46.233Z,16.67
2022-09-06T02:39:13.729Z,15.13
2022-09-06T02:41:43.922Z,15.45
2022-09-06T02:44:10.863Z,14.70
2022-09-06T02:46:37.830Z,14.27
2022-09-06T02:49:05.276Z,15.00
2022-09-06T02:51:39.751Z,14.15
2022-09-06T02:54:07.769Z,14.70
2022-09-06T02:56:36.668Z,14.95
2022-09-06T02:59:07.245Z,15.27
2022-09-06T03:01:34.685Z,14.60
2022-09-06T03:04:02.321Z,16.92
2022-09-06T03:06:29.497Z,18.95
2022-09-06T03:08:56.455Z,14.95
2022-09-06T03:11:23.365Z,16.05
2022-09-06T03:13:51.261Z,15.15
2022-09-06T03:16:18.718Z,14.95
2022-09-06T03:18:46.011Z,18.80
2022-09-06T03:21:13.404Z,16.52
2022-09-06T03:23:40.566Z,15.68
2022-09-06T03:26:08.642Z,18.63
2022-09-06T03:28:35.693Z,14.57
2022-09-06T03:31:02.807Z,13.85
2022-09-06T03:33:30.119Z,16.30
2022-09-06T03:35:59.607Z,14.85
2022-09-06T03:38:28.323Z,16.52
2022-09-06T03:40:55.950Z,15.80
2022-09-06T03:43:24.791Z,13.70
2022-09-06T03:45:54.761Z,15.13
2022-09-06T03:48:23.433Z,14.40
2022-09-06T03:50:54.383Z,14.32
2022-09-06T03:53:22.894Z,15.00
2022-09-06T03:55:52.550Z,17.02
2022-09-06T03:58:21.992Z,18.13
2022-09-06T04:00:49.401Z,17.10
2022-09-06T04:03:19.540Z,15.15
2022-09-06T04:05:46.891Z,18.27
2022-09-06T04:08:13.882Z,18.75
2022-09-06T04:10:40.984Z,16.30
2022-09-06T04:13:08.029Z,20.75
2022-09-06T04:15:35.005Z,15.18
2022-09-06T04:18:04.007Z,18.00
2022-09-06T04:20:34.292Z,17.80
2022-09-06T04:23:01.284Z,15.88
2022-09-06T04:25:28.237Z,15.45
2022-09-06T04:27:55.218Z,15.43
2022-09-06T04:30:22.193Z,14.52
2022-09-06T04:32:49.177Z,14.90
2022-09-06T04:35:16.211Z,14.85
2022-09-06T04:37:43.758Z,17.60
2022-09-06T04:40:11.204Z,16.70
2022-09-06T04:42:38.163Z,15.80
2022-09-06T04:45:05.834Z,17.35
2022-09-06T04:47:32.834Z,14.73
2022-09-06T04:49:59.895Z,17.67
2022-09-06T04:52:30.092Z,15.52
2022-09-06T04:54:57.330Z,16.88
2022-09-06T04:57:24.312Z,17.70
2022-09-06T04:59:51.286Z,17.58
2022-09-06T05:02:18.354Z,13.73
2022-09-06T05:04:45.360Z,16.98
2022-09-06T05:07:12.284Z,14.73
2022-09-06T05:09:39.270Z,20.77
2022-09-06T05:12:06.553Z,17.63
2022-09-06T05:14:33.515Z,13.20
2022-09-06T05:17:00.478Z,16.40
2022-09-06T05:19:27.487Z,16.02
2022-09-06T05:21:54.497Z,23.63
2022-09-06T05:24:22.257Z,13.88
2022-09-06T05:26:49.224Z,13.18
2022-09-06T05:29:16.152Z,14.65
2022-09-06T05:31:43.180Z,13.88
2022-09-06T05:34:10.709Z,13.18
2022-09-06T05:36:38.842Z,14.10
2022-09-06T05:39:05.946Z,16.05
2022-09-06T05:41:33.886Z,19.60
2022-09-06T05:44:00.800Z,21.88
2022-09-06T05:46:27.875Z,22.50
2022-09-06T05:49:04.762Z,23.00
2022-09-06T05:51:32.895Z,23.10
2022-09-06T05:54:00.203Z,16.80
2022-09-06T05:56:27.133Z,14.70
2022-09-06T05:58:54.211Z,13.77
2022-09-06T06:01:45.735Z,12.98
2022-09-06T06:04:12.710Z,15.32
2022-09-06T06:06:39.657Z,11.80
2022-09-06T06:09:07.283Z,13.25
2022-09-06T06:11:34.200Z,16.27
2022-09-06T06:14:02.226Z,11.32
2022-09-06T06:16:29.410Z,13.73
2022-09-06T06:18:56.649Z,11.38
2022-09-06T06:21:32.239Z,14.15
2022-09-06T06:24:01.565Z,12.10
2022-09-06T06:26:31.431Z,12.15
2022-09-06T06:29:01.951Z,12.63
2022-09-06T06:31:33.354Z,16.38
2022-09-06T06:34:03.371Z,10.23
2022-09-06T06:36:33.849Z,12.13
2022-09-06T06:39:02.148Z,10.80
2022-09-06T06:41:31.972Z,12.30
2022-09-06T06:44:03.881Z,12.65
2022-09-06T06:46:37.470Z,14.30
2022-09-06T06:49:05.251Z,13.38
2022-09-06T06:51:33.978Z,11.57
2022-09-06T06:54:00.922Z,11.55
2022-09-06T06:56:31.035Z,10.18
2022-09-06T06:59:00.143Z,10.90
2022-09-06T07:01:29.460Z,10.85
2022-09-06T07:03:57.043Z,18.42
2022-09-06T07:09:11.963Z,13.85
2022-09-06T07:11:38.880Z,13.48
2022-09-06T07:14:05.820Z,10.70
2022-09-06T07:16:32.822Z,10.20
2022-09-06T07:19:00.273Z,9.52
2022-09-06T07:26:31.876Z,13.00
2022-09-06T07:29:05.500Z,13.02
2022-09-06T07:34:21.126Z,9.32
2022-09-06T07:36:48.718Z,11.90
2022-09-06T07:39:15.743Z,12.25
2022-09-06T07:41:43.850Z,12.18
2022-09-06T07:44:11.291Z,11.95
2022-09-06T07:46:38.478Z,10.77
2022-09-06T07:49:06.433Z,8.50
2022-09-06T07:51:33.447Z,11.15
2022-09-06T07:54:29.312Z,10.48
2022-09-06T07:56:47.652Z,7.65
2022-09-06T07:59:14.991Z,7.75
2022-09-06T08:01:42.595Z,9.95
2022-09-06T08:04:14.157Z,9.57
2022-09-06T08:09:31.226Z,14.98
2022-09-06T08:11:58.305Z,10.65
2022-09-06T08:14:25.321Z,8.60
2022-09-06T08:16:52.399Z,9.32
2022-09-06T08:19:19.334Z,9.50
2022-09-06T08:21:46.377Z,8.82
2022-09-06T08:24:13.483Z,8.77
2022-09-06T08:26:42.398Z,10.60
2022-09-06T08:29:10.998Z,9.35
2022-09-06T08:31:41.536Z,6.50
2022-09-06T08:34:09.243Z,8.15
2022-09-06T08:36:36.613Z,11.52
2022-09-06T08:39:06.348Z,7.35
2022-09-06T08:42:06.196Z,7.30
2022-09-06T08:47:24.286Z,7.43
2022-09-06T08:49:56.921Z,10.95
2022-09-06T08:52:32.087Z,7.90
2022-09-06T08:55:16.132Z,7.28
2022-09-06T08:58:14.061Z,9.82
2022-09-06T09:00:47.024Z,9.18
2022-09-06T09:03:21.579Z,7.53
2022-09-06T09:05:53.467Z,6.72
2022-09-06T09:08:51.759Z,6.47
2022-09-06T09:11:23.426Z,7.93
2022-09-06T09:13:59.824Z,7.07
2022-09-06T09:16:27.187Z,8.88
2022-09-06T09:19:01.526Z,12.07
2022-09-06T09:21:31.271Z,7.00
2022-09-06T09:24:03.243Z,7.05
2022-09-06T09:26:41.602Z,8.93
2022-09-06T09:29:14.357Z,6.78
2022-09-06T09:31:53.304Z,7.78
2022-09-06T09:34:38.891Z,10.27
2022-09-06T09:40:05.185Z,11.05
2022-09-06T09:42:35.984Z,8.63
2022-09-06T09:45:22.763Z,9.52
2022-09-06T09:47:49.886Z,7.90
2022-09-06T09:50:30.709Z,6.60
2022-09-06T09:53:12.833Z,7.68
2022-09-06T09:55:41.586Z,7.35
2022-09-06T09:58:30.682Z,9.77
2022-09-06T10:01:33.958Z,8.05
2022-09-06T10:09:41.855Z,7.50
2022-09-06T10:12:13.560Z,8.45
2022-09-06T10:14:44.384Z,9.50
2022-09-06T10:17:35.427Z,6.50
2022-09-06T10:20:10.425Z,6.50
2022-09-06T10:22:43.309Z,8.85
2022-09-06T10:25:29.178Z,7.70
2022-09-06T10:28:12.332Z,7.68
2022-09-06T10:30:51.032Z,6.80
2022-09-06T10:33:31.131Z,6.47
2022-09-06T10:36:00.798Z,9.75
2022-09-06T10:38:36.470Z,6.43
2022-09-06T10:41:25.395Z,9.60
2022-09-06T10:44:18.627Z,6.60
2022-09-06T10:46:47.009Z,8.05
2022-09-06T10:49:19.541Z,7.80
2022-09-06T10:51:57.817Z,8.25
2022-09-06T10:54:27.320Z,6.97
2022-09-06T10:56:58.240Z,12.90
2022-09-06T10:59:39.384Z,8.52
2022-09-06T11:02:25.148Z,6.95
2022-09-06T11:10:40.410Z,9.40
2022-09-06T11:13:16.496Z,12.00
2022-09-06T11:15:59.979Z,10.95
2022-09-06T11:18:36.758Z,7.72
2022-09-06T11:21:21.584Z,8.48
2022-09-06T11:24:16.245Z,6.15
2022-09-06T11:26:45.883Z,7.47
2022-09-06T11:29:29.164Z,5.95
2022-09-06T11:32:18.009Z,5.82
2022-09-06T11:34:56.861Z,6.13
2022-09-06T11:37:43.138Z,6.20
2022-09-06T11:40:28.241Z,4.75
2022-09-06T11:42:55.790Z,3.78
2022-09-06T11:45:43.332Z,4.05
2022-09-06T11:48:36.921Z,3.78
2022-09-06T11:51:11.054Z,3.60
2022-09-06T11:53:50.051Z,5.22
2022-09-06T11:56:49.715Z,4.45
2022-09-06T11:59:16.621Z,3.85
2022-09-06T12:02:04.615Z,4.28
2022-09-06T12:05:00.439Z,4.32
2022-09-06T12:07:32.372Z,5.35
2022-09-06T12:10:02.250Z,5.25
2022-09-06T12:12:46.006Z,6.75
2022-09-06T12:15:32.185Z,4.15
2022-09-06T12:18:00.929Z,5.85
2022-09-06T12:20:49.371Z,4.20
2022-09-06T12:23:35.026Z,7.47
2022-09-06T12:26:06.774Z,5.60
2022-09-06T12:28:47.338Z,4.82
2022-09-06T12:31:26.224Z,4.53
2022-09-06T12:33:54.934Z,4.47
2022-09-06T12:36:29.880Z,4.97
2022-09-06T12:39:03.393Z,6.65
2022-09-06T12:41:38.392Z,3.72
2022-09-06T12:44:08.942Z,3.42
2022-09-06T12:46:37.269Z,4.90
2022-09-06T12:49:10.712Z,8.05
2022-09-06T12:51:40.194Z,6.13
2022-09-06T12:54:23.519Z,5.07
2022-09-06T12:56:51.639Z,5.28
2022-09-06T12:59:27.276Z,5.57
2022-09-06T13:02:05.759Z,7.38
2022-09-06T13:04:43.560Z,3.20
2022-09-06T13:07:16.998Z,3.78
2022-09-06T13:09:49.108Z,4.88
2022-09-06T13:12:40.492Z,4.55
2022-09-06T13:15:21.284Z,7.03
2022-09-06T13:17:48.603Z,3.22
2022-09-06T13:20:27.423Z,5.95
2022-09-06T13:23:09.971Z,4.00
2022-09-06T13:25:51.111Z,2.67
2022-09-06T13:28:30.068Z,3.00
2022-09-06T13:31:18.291Z,2.83
2022-09-06T13:33:46.583Z,3.45
2022-09-06T13:36:26.776Z,4.90
2022-09-06T13:38:54.607Z,4.65
2022-09-06T13:41:30.016Z,6.10
2022-09-06T13:44:03.478Z,4.63
2022-09-06T13:46:32.554Z,5.18
2022-09-06T13:48:59.640Z,3.63
2022-09-06T13:51:26.699Z,3.92
2022-09-06T13:54:07.907Z,3.08
2022-09-06T13:56:35.729Z,2.83
2022-09-06T13:59:04.405Z,3.10
2022-09-06T14:01:33.292Z,3.45
2022-09-06T14:04:00.409Z,2.83
2022-09-06T14:06:28.069Z,2.95
2022-09-06T14:09:06.745Z,3.83
2022-09-06T14:11:35.539Z,3.40
2022-09-06T14:14:02.525Z,2.40
2022-09-06T14:16:30.130Z,4.50
2022-09-06T14:18:57.583Z,2.97
2022-09-06T14:21:25.213Z,4.05
2022-09-06T14:23:52.734Z,3.95
2022-09-06T14:26:21.200Z,3.47
2022-09-06T14:28:49.192Z,4.45
2022-09-06T14:31:19.553Z,3.28
2022-09-06T14:33:46.738Z,2.30
2022-09-06T14:36:19.905Z,2.70
2022-09-06T14:38:47.713Z,2.50
2022-09-06T14:41:17.871Z,4.45
2022-09-06T14:43:49.332Z,3.10
2022-09-06T14:46:18.378Z,1.98
2022-09-06T14:48:46.396Z,2.47
2022-09-06T14:51:22.073Z,2.38
2022-09-06T14:53:52.263Z,2.53
2022-09-06T14:56:19.335Z,2.88
2022-09-06T14:58:46.811Z,3.30
2022-09-06T15:01:15.000Z,4.68
2022-09-06T15:03:44.340Z,3.55
2022-09-06T15:06:11.517Z,4.00
2022-09-06T15:08:38.860Z,4.28
2022-09-06T15:11:08.276Z,3.28
2022-09-06T15:13:38.981Z,2.88
2022-09-06T15:16:07.569Z,3.47
2022-09-06T15:18:35.459Z,3.58
2022-09-06T15:21:12.925Z,4.10
2022-09-06T15:23:40.454Z,3.72
2022-09-06T15:26:08.701Z,3.75
2022-09-06T15:28:37.111Z,3.60
2022-09-06T15:31:05.096Z,3.42
2022-09-06T15:33:33.725Z,4.88
2022-09-06T15:36:06.174Z,2.92
2022-09-06T15:38:40.758Z,6.45
2022-09-06T15:41:13.004Z,3.38
2022-09-06T15:43:44.608Z,3.95
2022-09-06T15:46:11.599Z,3.88
2022-09-06T15:48:43.154Z,5.35
2022-09-06T15:51:12.338Z,4.22
2022-09-06T15:53:39.738Z,5.13
2022-09-06T15:56:08.366Z,5.30
2022-09-06T15:58:35.416Z,3.97
2022-09-06T16:01:10.316Z,5.82
2022-09-06T16:03:40.112Z,4.82
2022-09-06T16:06:27.189Z,4.10
2022-09-06T16:09:00.352Z,5.93
2022-09-06T16:11:28.618Z,6.47
2022-09-06T16:13:56.284Z,6.18
2022-09-06T16:16:23.601Z,8.05
2022-09-06T16:18:52.348Z,8.82
2022-09-06T16:21:24.453Z,6.43
2022-09-06T16:23:55.319Z,5.60
2022-09-06T16:26:24.096Z,7.47
2022-09-06T16:28:53.163Z,6.57
2022-09-06T16:31:21.289Z,6.35
2022-09-06T16:33:49.149Z,4.93
2022-09-06T16:36:17.926Z,5.45
2022-09-06T16:38:46.170Z,8.85
2022-09-06T16:41:21.424Z,6.20
2022-09-06T16:43:49.454Z,5.35
2022-09-06T16:46:17.837Z,4.38
2022-09-06T16:48:54.086Z,8.07
2022-09-06T16:51:23.074Z,5.60
2022-09-06T16:53:50.727Z,7.18
2022-09-06T16:56:26.325Z,6.32
2022-09-06T16:58:58.924Z,5.45
2022-09-06T17:01:28.402Z,6.10
2022-09-06T17:03:56.526Z,6.70
2022-09-06T17:06:25.188Z,5.57
2022-09-06T17:08:52.278Z,6.13
2022-09-06T17:11:21.686Z,5.68
2022-09-06T17:13:51.596Z,6.68
2022-09-06T17:16:38.069Z,5.72
2022-09-06T17:19:06.417Z,9.07
2022-09-06T17:21:34.336Z,7.90
2022-09-06T17:24:04.795Z,10.02
2022-09-06T17:26:34.075Z,6.68
2022-09-06T17:29:01.153Z,8.38
2022-09-06T17:31:28.359Z,10.00
2022-09-06T17:33:55.375Z,8.93
2022-09-06T17:36:25.352Z,9.65
2022-09-06T17:38:54.137Z,13.95
2022-09-06T17:41:28.124Z,8.23
2022-09-06T17:43:55.675Z,10.40
2022-09-06T17:46:28.374Z,12.38
2022-09-06T17:48:56.782Z,13.75
2022-09-06T17:51:25.046Z,8.68
2022-09-06T17:53:53.143Z,9.73
2022-09-06T17:56:21.335Z,9.13
2022-09-06T17:59:00.574Z,10.32
2022-09-06T18:01:31.401Z,8.70
2022-09-06T18:03:59.829Z,9.45
2022-09-06T18:06:29.339Z,9.10
2022-09-06T18:09:00.261Z,9.27
2022-09-06T18:11:30.372Z,8.30
2022-09-06T18:14:18.586Z,11.02
2022-09-06T18:16:47.403Z,12.80
2022-09-06T18:19:15.520Z,9.90
2022-09-06T18:21:42.954Z,11.05
2022-09-06T18:24:13.687Z,10.18
2022-09-06T18:26:41.726Z,15.07
2022-09-06T18:29:13.355Z,11.20
2022-09-06T18:31:41.682Z,10.88
2022-09-06T18:34:09.590Z,13.35
2022-09-06T18:36:38.583Z,8.40
2022-09-06T18:39:06.765Z,8.77
2022-09-06T18:41:53.395Z,11.30
2022-09-06T18:44:21.201Z,11.93
2022-09-06T18:46:49.469Z,9.13
2022-09-06T18:49:17.729Z,9.40
2022-09-06T18:51:45.873Z,10.93
2022-09-06T18:54:14.176Z,11.13
2022-09-06T18:56:43.166Z,11.52
2022-09-06T18:59:13.447Z,8.95
2022-09-06T19:01:41.302Z,8.82
2022-09-06T19:04:08.835Z,9.90
2022-09-06T19:06:37.731Z,10.30
2022-09-06T19:09:08.244Z,8.75
2022-09-06T19:11:35.742Z,9.20
2022-09-06T19:14:04.265Z,8.40
2022-09-06T19:16:32.085Z,9.00
2022-09-06T19:19:05.897Z,9.63
2022-09-06T19:21:36.764Z,9.27
2022-09-06T19:24:10.525Z,9.52
2022-09-06T19:26:40.414Z,11.40
2022-09-06T19:29:11.952Z,10.48
2022-09-06T19:31:39.443Z,12.10
2022-09-06T19:34:07.662Z,11.15
2022-09-06T19:36:35.626Z,13.38
2022-09-06T19:39:06.650Z,10.80
2022-09-06T19:41:38.504Z,17.95
2022-09-06T19:44:07.804Z,11.00
2022-09-06T19:46:35.915Z,13.45
2022-09-06T19:49:03.538Z,9.68
2022-09-06T19:51:31.740Z,12.13
2022-09-06T19:54:00.049Z,10.18
2022-09-06T19:56:31.770Z,10.20
2022-09-06T19:59:04.325Z,13.07
2022-09-06T20:04:02.696Z,10.80
2022-09-06T20:06:31.052Z,12.25
2022-09-06T20:08:59.350Z,12.50
2022-09-06T20:11:28.890Z,13.32
2022-09-06T20:13:56.331Z,11.00
2022-09-06T20:16:24.976Z,12.55
2022-09-06T20:18:53.993Z,13.13
2022-09-06T20:21:21.719Z,11.88
2022-09-06T20:23:50.521Z,11.68
2022-09-06T20:26:18.485Z,17.35
2022-09-06T20:28:45.862Z,17.23
2022-09-06T20:31:20.722Z,16.42
2022-09-06T20:33:49.805Z,11.63
2022-09-06T20:36:17.756Z,14.38
2022-09-06T20:38:45.920Z,11.02
2022-09-06T20:41:18.651Z,12.20
2022-09-06T20:43:46.671Z,15.05
2022-09-06T20:46:16.307Z,12.68
2022-09-06T20:48:45.392Z,12.32
2022-09-06T20:51:19.490Z,13.52
2022-09-06T20:53:48.408Z,11.82
2022-09-06T20:56:20.930Z,15.40
2022-09-06T20:58:50.188Z,12.52
2022-09-06T21:01:23.098Z,11.88
2022-09-06T21:03:53.361Z,10.77
2022-09-06T21:06:20.960Z,10.20
2022-09-06T21:08:49.201Z,11.90
2022-09-06T21:11:16.825Z,10.82
2022-09-06T21:13:44.310Z,12.10
2022-09-06T21:16:11.435Z,11.00
2022-09-06T21:18:38.414Z,11.20
2022-09-06T21:21:07.972Z,11.30
2022-09-06T21:23:36.953Z,12.18
2022-09-06T21:26:06.559Z,11.05
2022-09-06T21:28:35.725Z,11.27
2022-09-06T21:31:09.837Z,10.32
2022-09-06T21:33:40.572Z,12.88
2022-09-06T21:36:30.335Z,14.32
2022-09-06T21:39:03.104Z,10.52
2022-09-06T21:41:32.034Z,9.82
2022-09-06T21:44:00.776Z,11.65
2022-09-06T21:46:33.655Z,13.13
2022-09-06T21:49:09.038Z,10.35
2022-09-06T21:51:36.700Z,11.88
2022-09-06T21:54:04.835Z,10.32
2022-09-06T21:56:36.575Z,12.82
2022-09-06T21:59:05.180Z,11.17
2022-09-06T22:01:34.240Z,9.68
2022-09-06T22:04:02.461Z,12.30
2022-09-06T22:06:31.629Z,11.10
2022-09-06T22:09:00.818Z,9.85
2022-09-06T22:11:30.128Z,10.45
2022-09-06T22:14:02.483Z,13.18
2022-09-06T22:16:31.710Z,11.52
2022-09-06T22:18:58.863Z,10.68
2022-09-06T22:21:26.134Z,10.57
2022-09-06T22:23:55.483Z,13.05
2022-09-06T22:26:23.640Z,10.85
2022-09-06T22:28:59.095Z,10.75
2022-09-06T22:31:28.046Z,11.15
2022-09-06T22:33:55.402Z,13.95
2022-09-06T22:36:23.952Z,13.43
2022-09-06T22:38:57.684Z,17.02
2022-09-06T22:41:30.809Z,14.18
2022-09-06T22:44:00.504Z,11.02
2022-09-06T22:46:27.830Z,13.52
2022-09-06T22:48:55.396Z,10.95
2022-09-06T22:51:22.400Z,14.73
2022-09-06T22:53:49.369Z,12.15
2022-09-06T22:56:16.360Z,14.07
2022-09-06T22:58:43.314Z,14.20
2022-09-06T23:01:15.564Z,14.88
2022-09-06T23:03:43.913Z,13.10
2022-09-06T23:06:11.423Z,14.75
2022-09-06T23:08:39.886Z,14.85
2022-09-06T23:11:12.445Z,13.85
2022-09-06T23:13:43.749Z,12.20
2022-09-06T23:16:19.530Z,15.02
2022-09-06T23:18:47.466Z,17.85
2022-09-06T23:21:20.221Z,15.63
2022-09-06T23:26:22.912Z,14.88
2022-09-06T23:28:57.045Z,16.17
2022-09-06T23:31:28.798Z,15.30
2022-09-06T23:33:57.415Z,15.17
2022-09-06T23:36:24.985Z,15.23
2022-09-06T23:38:52.473Z,21.60
2022-09-06T23:41:19.554Z,15.40
2022-09-06T23:43:46.528Z,17.55
2022-09-06T23:46:14.998Z,15.25
2022-09-06T23:48:43.390Z,17.02
2022-09-06T23:51:10.825Z,15.13
2022-09-06T23:53:38.332Z,15.73
2022-09-06T23:56:05.920Z,14.90
2022-09-06T23:58:33.363Z,17.67
